sensor_id;sensor_type;location;lat;lon;timestamp;P1;durP1;ratioP1;P2;durP2;ratioP2
34767;SDS011;21755;43.608;1.236;2023-12-20T00:01:38;15.68;;;9.88;;
34767;SDS011;21755;43.608;1.236;2023-12-20T00:04:04;17.00;;;11.23;;
34767;SDS011;21755;43.608;1.236;2023-12-20T00:06:31;16.75;;;9.82;;
34767;SDS011;21755;43.608;1.236;2023-12-20T00:08:57;17.23;;;10.70;;
34767;SDS011;21755;43.608;1.236;2023-12-20T00:11:23;13.38;;;8.65;;
34767;SDS011;21755;43.608;1.236;2023-12-20T00:13:49;16.67;;;10.23;;
34767;SDS011;21755;43.608;1.236;2023-12-20T00:16:16;14.20;;;9.73;;
34767;SDS011;21755;43.608;1.236;2023-12-20T00:18:42;15.43;;;9.40;;
34767;SDS011;21755;43.608;1.236;2023-12-20T00:21:07;13.52;;;9.02;;
34767;SDS011;21755;43.608;1.236;2023-12-20T00:23:33;14.50;;;9.70;;
34767;SDS011;21755;43.608;1.236;2023-12-20T00:25:59;15.40;;;9.35;;
34767;SDS011;21755;43.608;1.236;2023-12-20T00:28:25;12.30;;;8.10;;
34767;SDS011;21755;43.608;1.236;2023-12-20T00:30:51;13.90;;;9.57;;
34767;SDS011;21755;43.608;1.236;2023-12-20T00:33:17;11.65;;;7.97;;
34767;SDS011;21755;43.608;1.236;2023-12-20T00:35:43;14.55;;;9.77;;
34767;SDS011;21755;43.608;1.236;2023-12-20T00:38:09;14.98;;;9.43;;
34767;SDS011;21755;43.608;1.236;2023-12-20T00:40:36;15.55;;;9.15;;
34767;SDS011;21755;43.608;1.236;2023-12-20T00:43:02;12.82;;;8.77;;
34767;SDS011;21755;43.608;1.236;2023-12-20T00:45:28;14.35;;;8.88;;
34767;SDS011;21755;43.608;1.236;2023-12-20T00:47:54;14.15;;;9.55;;
34767;SDS011;21755;43.608;1.236;2023-12-20T00:50:20;12.30;;;8.70;;
34767;SDS011;21755;43.608;1.236;2023-12-20T00:52:47;11.90;;;7.75;;
34767;SDS011;21755;43.608;1.236;2023-12-20T00:55:13;13.52;;;8.65;;
34767;SDS011;21755;43.608;1.236;2023-12-20T00:57:39;13.13;;;9.05;;
34767;SDS011;21755;43.608;1.236;2023-12-20T01:00:05;12.95;;;8.30;;
34767;SDS011;21755;43.608;1.236;2023-12-20T01:02:31;13.50;;;8.68;;
34767;SDS011;21755;43.608;1.236;2023-12-20T01:04:57;11.90;;;8.00;;
34767;SDS011;21755;43.608;1.236;2023-12-20T01:07:23;14.52;;;9.27;;
34767;SDS011;21755;43.608;1.236;2023-12-20T01:09:49;12.05;;;8.25;;
34767;SDS011;21755;43.608;1.236;2023-12-20T01:12:15;13.65;;;8.50;;
34767;SDS011;21755;43.608;1.236;2023-12-20T01:14:40;14.70;;;9.32;;
34767;SDS011;21755;43.608;1.236;2023-12-20T01:17:07;14.70;;;9.00;;
34767;SDS011;21755;43.608;1.236;2023-12-20T01:19:33;13.00;;;8.25;;
34767;SDS011;21755;43.608;1.236;2023-12-20T01:21:59;13.73;;;8.73;;
34767;SDS011;21755;43.608;1.236;2023-12-20T01:24:25;9.73;;;7.85;;
34767;SDS011;21755;43.608;1.236;2023-12-20T01:26:50;8.25;;;5.90;;
34767;SDS011;21755;43.608;1.236;2023-12-20T01:29:16;13.07;;;7.22;;
34767;SDS011;21755;43.608;1.236;2023-12-20T01:31:42;12.52;;;7.28;;
34767;SDS011;21755;43.608;1.236;2023-12-20T01:34:08;13.20;;;8.13;;
34767;SDS011;21755;43.608;1.236;2023-12-20T01:36:34;13.10;;;7.80;;
34767;SDS011;21755;43.608;1.236;2023-12-20T01:39:00;14.10;;;8.65;;
34767;SDS011;21755;43.608;1.236;2023-12-20T01:41:26;12.98;;;7.57;;
34767;SDS011;21755;43.608;1.236;2023-12-20T01:43:52;13.60;;;7.38;;
34767;SDS011;21755;43.608;1.236;2023-12-20T01:46:18;10.63;;;7.10;;
34767;SDS011;21755;43.608;1.236;2023-12-20T01:48:46;10.82;;;7.07;;
34767;SDS011;21755;43.608;1.236;2023-12-20T01:51:13;12.68;;;7.78;;
34767;SDS011;21755;43.608;1.236;2023-12-20T01:53:39;13.93;;;7.75;;
34767;SDS011;21755;43.608;1.236;2023-12-20T01:56:06;12.20;;;7.15;;
34767;SDS011;21755;43.608;1.236;2023-12-20T01:58:33;10.77;;;7.25;;
34767;SDS011;21755;43.608;1.236;2023-12-20T02:01:00;11.73;;;7.28;;
34767;SDS011;21755;43.608;1.236;2023-12-20T02:03:26;14.80;;;6.35;;
34767;SDS011;21755;43.608;1.236;2023-12-20T02:05:52;8.55;;;6.60;;
34767;SDS011;21755;43.608;1.236;2023-12-20T02:08:18;10.68;;;6.82;;
34767;SDS011;21755;43.608;1.236;2023-12-20T02:10:44;10.70;;;6.60;;
34767;SDS011;21755;43.608;1.236;2023-12-20T02:13:10;9.52;;;6.60;;
34767;SDS011;21755;43.608;1.236;2023-12-20T02:15:36;13.52;;;7.43;;
34767;SDS011;21755;43.608;1.236;2023-12-20T02:18:02;12.38;;;7.63;;
34767;SDS011;21755;43.608;1.236;2023-12-20T02:20:29;8.63;;;6.13;;
34767;SDS011;21755;43.608;1.236;2023-12-20T02:22:55;8.68;;;5.95;;
34767;SDS011;21755;43.608;1.236;2023-12-20T02:25:20;10.57;;;6.20;;
34767;SDS011;21755;43.608;1.236;2023-12-20T02:27:46;12.77;;;6.78;;
34767;SDS011;21755;43.608;1.236;2023-12-20T02:30:14;11.23;;;6.80;;
34767;SDS011;21755;43.608;1.236;2023-12-20T02:32:40;12.02;;;6.80;;
34767;SDS011;21755;43.608;1.236;2023-12-20T02:35:06;12.43;;;6.70;;
34767;SDS011;21755;43.608;1.236;2023-12-20T02:37:32;9.63;;;6.90;;
34767;SDS011;21755;43.608;1.236;2023-12-20T02:39:59;8.98;;;6.45;;
34767;SDS011;21755;43.608;1.236;2023-12-20T02:42:25;9.07;;;6.20;;
34767;SDS011;21755;43.608;1.236;2023-12-20T02:44:51;11.10;;;6.70;;
34767;SDS011;21755;43.608;1.236;2023-12-20T02:47:16;8.27;;;6.18;;
34767;SDS011;21755;43.608;1.236;2023-12-20T02:49:42;9.60;;;6.28;;
34767;SDS011;21755;43.608;1.236;2023-12-20T02:52:08;9.15;;;6.47;;
34767;SDS011;21755;43.608;1.236;2023-12-20T02:54:34;12.45;;;7.50;;
34767;SDS011;21755;43.608;1.236;2023-12-20T02:57:00;10.50;;;6.78;;
34767;SDS011;21755;43.608;1.236;2023-12-20T02:59:26;13.70;;;6.85;;
34767;SDS011;21755;43.608;1.236;2023-12-20T03:01:52;13.02;;;6.63;;
34767;SDS011;21755;43.608;1.236;2023-12-20T03:04:17;8.93;;;6.38;;
34767;SDS011;21755;43.608;1.236;2023-12-20T03:06:43;12.07;;;7.70;;
34767;SDS011;21755;43.608;1.236;2023-12-20T03:09:09;20.33;;;10.40;;
34767;SDS011;21755;43.608;1.236;2023-12-20T03:11:35;25.27;;;14.25;;
34767;SDS011;21755;43.608;1.236;2023-12-20T03:14:01;31.45;;;16.08;;
34767;SDS011;21755;43.608;1.236;2023-12-20T03:16:27;17.35;;;11.35;;
34767;SDS011;21755;43.608;1.236;2023-12-20T03:18:53;15.20;;;8.60;;
34767;SDS011;21755;43.608;1.236;2023-12-20T03:21:19;15.73;;;9.65;;
34767;SDS011;21755;43.608;1.236;2023-12-20T03:23:44;14.50;;;9.45;;
34767;SDS011;21755;43.608;1.236;2023-12-20T03:26:10;14.32;;;9.07;;
34767;SDS011;21755;43.608;1.236;2023-12-20T03:28:36;13.90;;;8.85;;
34767;SDS011;21755;43.608;1.236;2023-12-20T03:31:02;12.18;;;8.52;;
34767;SDS011;21755;43.608;1.236;2023-12-20T03:33:28;17.50;;;8.85;;
34767;SDS011;21755;43.608;1.236;2023-12-20T03:35:54;12.93;;;8.60;;
34767;SDS011;21755;43.608;1.236;2023-12-20T03:38:21;14.95;;;9.13;;
34767;SDS011;21755;43.608;1.236;2023-12-20T03:40:49;12.68;;;8.75;;
34767;SDS011;21755;43.608;1.236;2023-12-20T03:43:15;14.10;;;8.10;;
34767;SDS011;21755;43.608;1.236;2023-12-20T03:45:41;15.02;;;8.20;;
34767;SDS011;21755;43.608;1.236;2023-12-20T03:48:08;12.43;;;8.25;;
34767;SDS011;21755;43.608;1.236;2023-12-20T03:50:34;12.48;;;8.02;;
34767;SDS011;21755;43.608;1.236;2023-12-20T03:53:00;14.20;;;8.05;;
34767;SDS011;21755;43.608;1.236;2023-12-20T03:55:26;10.85;;;7.25;;
34767;SDS011;21755;43.608;1.236;2023-12-20T03:57:52;12.73;;;8.45;;
34767;SDS011;21755;43.608;1.236;2023-12-20T04:00:18;11.25;;;7.80;;
34767;SDS011;21755;43.608;1.236;2023-12-20T04:02:44;11.55;;;7.93;;
34767;SDS011;21755;43.608;1.236;2023-12-20T04:05:10;11.77;;;8.30;;
34767;SDS011;21755;43.608;1.236;2023-12-20T04:07:36;11.57;;;8.32;;
34767;SDS011;21755;43.608;1.236;2023-12-20T04:10:02;11.10;;;6.75;;
34767;SDS011;21755;43.608;1.236;2023-12-20T04:12:29;11.40;;;6.97;;
34767;SDS011;21755;43.608;1.236;2023-12-20T04:14:55;9.85;;;6.43;;
34767;SDS011;21755;43.608;1.236;2023-12-20T04:17:22;9.85;;;6.38;;
34767;SDS011;21755;43.608;1.236;2023-12-20T04:19:48;10.18;;;5.75;;
34767;SDS011;21755;43.608;1.236;2023-12-20T04:22:18;9.43;;;5.95;;
34767;SDS011;21755;43.608;1.236;2023-12-20T04:24:44;7.63;;;5.97;;
34767;SDS011;21755;43.608;1.236;2023-12-20T04:27:10;9.55;;;5.78;;
34767;SDS011;21755;43.608;1.236;2023-12-20T04:29:36;8.48;;;5.38;;
34767;SDS011;21755;43.608;1.236;2023-12-20T04:32:02;7.60;;;5.40;;
34767;SDS011;21755;43.608;1.236;2023-12-20T04:34:29;6.82;;;5.40;;
34767;SDS011;21755;43.608;1.236;2023-12-20T04:36:54;8.40;;;5.55;;
34767;SDS011;21755;43.608;1.236;2023-12-20T04:39:20;8.88;;;6.03;;
34767;SDS011;21755;43.608;1.236;2023-12-20T04:41:46;8.68;;;5.70;;
34767;SDS011;21755;43.608;1.236;2023-12-20T04:44:13;9.02;;;5.50;;
34767;SDS011;21755;43.608;1.236;2023-12-20T04:46:39;8.90;;;6.10;;
34767;SDS011;21755;43.608;1.236;2023-12-20T04:49:05;7.88;;;5.40;;
34767;SDS011;21755;43.608;1.236;2023-12-20T04:51:34;8.07;;;5.32;;
34767;SDS011;21755;43.608;1.236;2023-12-20T04:54:00;7.75;;;5.32;;
34767;SDS011;21755;43.608;1.236;2023-12-20T04:56:27;8.77;;;5.68;;
34767;SDS011;21755;43.608;1.236;2023-12-20T04:58:53;6.25;;;4.95;;
34767;SDS011;21755;43.608;1.236;2023-12-20T05:01:19;7.30;;;4.97;;
34767;SDS011;21755;43.608;1.236;2023-12-20T05:03:45;6.60;;;4.68;;
34767;SDS011;21755;43.608;1.236;2023-12-20T05:06:11;7.95;;;5.07;;
34767;SDS011;21755;43.608;1.236;2023-12-20T05:08:37;7.30;;;5.00;;
34767;SDS011;21755;43.608;1.236;2023-12-20T05:11:03;6.43;;;4.70;;
34767;SDS011;21755;43.608;1.236;2023-12-20T05:13:30;6.72;;;4.57;;
34767;SDS011;21755;43.608;1.236;2023-12-20T05:15:56;5.80;;;4.60;;
34767;SDS011;21755;43.608;1.236;2023-12-20T05:18:22;7.53;;;4.20;;
34767;SDS011;21755;43.608;1.236;2023-12-20T05:20:48;5.90;;;4.10;;
34767;SDS011;21755;43.608;1.236;2023-12-20T05:23:15;6.38;;;4.32;;
34767;SDS011;21755;43.608;1.236;2023-12-20T05:25:42;5.32;;;4.20;;
34767;SDS011;21755;43.608;1.236;2023-12-20T05:28:08;5.45;;;4.13;;
34767;SDS011;21755;43.608;1.236;2023-12-20T05:30:34;7.78;;;4.05;;
34767;SDS011;21755;43.608;1.236;2023-12-20T05:32:59;7.22;;;4.28;;
34767;SDS011;21755;43.608;1.236;2023-12-20T05:35:26;4.57;;;3.42;;
34767;SDS011;21755;43.608;1.236;2023-12-20T05:37:52;8.18;;;4.43;;
34767;SDS011;21755;43.608;1.236;2023-12-20T05:40:18;6.38;;;4.55;;
34767;SDS011;21755;43.608;1.236;2023-12-20T05:42:43;4.90;;;3.60;;
34767;SDS011;21755;43.608;1.236;2023-12-20T05:48:31;6.10;;;3.80;;
34767;SDS011;21755;43.608;1.236;2023-12-20T05:50:57;4.70;;;3.22;;
34767;SDS011;21755;43.608;1.236;2023-12-20T05:53:23;5.25;;;4.00;;
34767;SDS011;21755;43.608;1.236;2023-12-20T05:55:49;5.55;;;3.70;;
34767;SDS011;21755;43.608;1.236;2023-12-20T05:58:15;5.80;;;3.63;;
34767;SDS011;21755;43.608;1.236;2023-12-20T06:00:41;5.35;;;3.60;;
34767;SDS011;21755;43.608;1.236;2023-12-20T06:03:07;5.05;;;3.47;;
34767;SDS011;21755;43.608;1.236;2023-12-20T06:05:33;5.80;;;3.45;;
34767;SDS011;21755;43.608;1.236;2023-12-20T06:07:59;5.45;;;3.45;;
34767;SDS011;21755;43.608;1.236;2023-12-20T06:10:28;6.28;;;3.65;;
34767;SDS011;21755;43.608;1.236;2023-12-20T06:12:54;6.40;;;3.13;;
34767;SDS011;21755;43.608;1.236;2023-12-20T06:15:21;4.63;;;3.20;;
34767;SDS011;21755;43.608;1.236;2023-12-20T06:17:47;4.28;;;3.20;;
34767;SDS011;21755;43.608;1.236;2023-12-20T06:20:13;5.30;;;3.00;;
34767;SDS011;21755;43.608;1.236;2023-12-20T06:22:39;3.80;;;2.90;;
34767;SDS011;21755;43.608;1.236;2023-12-20T06:25:05;3.47;;;2.95;;
34767;SDS011;21755;43.608;1.236;2023-12-20T06:27:32;4.32;;;2.58;;
34767;SDS011;21755;43.608;1.236;2023-12-20T06:29:57;3.55;;;3.13;;
34767;SDS011;21755;43.608;1.236;2023-12-20T06:32:24;2.85;;;2.38;;
34767;SDS011;21755;43.608;1.236;2023-12-20T06:34:50;2.78;;;2.35;;
34767;SDS011;21755;43.608;1.236;2023-12-20T06:37:16;3.15;;;2.30;;
34767;SDS011;21755;43.608;1.236;2023-12-20T06:39:42;2.35;;;2.13;;
34767;SDS011;21755;43.608;1.236;2023-12-20T06:42:08;3.60;;;2.47;;
34767;SDS011;21755;43.608;1.236;2023-12-20T06:44:33;3.28;;;2.65;;
34767;SDS011;21755;43.608;1.236;2023-12-20T06:46:59;4.30;;;2.17;;
34767;SDS011;21755;43.608;1.236;2023-12-20T06:49:25;2.63;;;2.20;;
34767;SDS011;21755;43.608;1.236;2023-12-20T06:51:51;2.13;;;1.90;;
34767;SDS011;21755;43.608;1.236;2023-12-20T06:54:18;1.92;;;1.60;;
34767;SDS011;21755;43.608;1.236;2023-12-20T06:56:44;2.85;;;2.03;;
34767;SDS011;21755;43.608;1.236;2023-12-20T06:59:10;1.90;;;1.40;;
34767;SDS011;21755;43.608;1.236;2023-12-20T07:01:35;1.40;;;1.30;;
34767;SDS011;21755;43.608;1.236;2023-12-20T07:04:01;3.70;;;1.80;;
34767;SDS011;21755;43.608;1.236;2023-12-20T07:06:27;2.85;;;1.50;;
34767;SDS011;21755;43.608;1.236;2023-12-20T07:08:53;2.33;;;1.58;;
34767;SDS011;21755;43.608;1.236;2023-12-20T07:11:19;2.42;;;1.63;;
34767;SDS011;21755;43.608;1.236;2023-12-20T07:13:45;3.25;;;1.90;;
34767;SDS011;21755;43.608;1.236;2023-12-20T07:16:11;2.63;;;1.73;;
34767;SDS011;21755;43.608;1.236;2023-12-20T07:18:37;2.90;;;1.70;;
34767;SDS011;21755;43.608;1.236;2023-12-20T07:21:03;2.35;;;2.05;;
34767;SDS011;21755;43.608;1.236;2023-12-20T07:23:29;2.50;;;1.83;;
34767;SDS011;21755;43.608;1.236;2023-12-20T07:25:55;2.85;;;1.83;;
34767;SDS011;21755;43.608;1.236;2023-12-20T07:28:20;1.98;;;1.65;;
34767;SDS011;21755;43.608;1.236;2023-12-20T07:30:50;2.75;;;1.90;;
34767;SDS011;21755;43.608;1.236;2023-12-20T07:33:19;2.45;;;1.80;;
34767;SDS011;21755;43.608;1.236;2023-12-20T07:35:45;2.92;;;1.63;;
34767;SDS011;21755;43.608;1.236;2023-12-20T07:38:11;1.90;;;1.70;;
34767;SDS011;21755;43.608;1.236;2023-12-20T07:40:37;2.30;;;1.95;;
34767;SDS011;21755;43.608;1.236;2023-12-20T07:43:04;2.75;;;1.80;;
34767;SDS011;21755;43.608;1.236;2023-12-20T07:45:30;2.08;;;1.38;;
34767;SDS011;21755;43.608;1.236;2023-12-20T07:47:56;1.70;;;1.50;;
34767;SDS011;21755;43.608;1.236;2023-12-20T07:50:22;2.00;;;1.65;;
34767;SDS011;21755;43.608;1.236;2023-12-20T07:52:48;1.55;;;1.45;;
34767;SDS011;21755;43.608;1.236;2023-12-20T07:55:13;1.83;;;1.50;;
34767;SDS011;21755;43.608;1.236;2023-12-20T07:57:39;2.08;;;1.67;;
34767;SDS011;21755;43.608;1.236;2023-12-20T08:00:05;1.80;;;1.50;;
34767;SDS011;21755;43.608;1.236;2023-12-20T08:02:32;2.28;;;1.70;;
34767;SDS011;21755;43.608;1.236;2023-12-20T08:04:57;1.85;;;1.70;;
34767;SDS011;21755;43.608;1.236;2023-12-20T08:07:23;2.30;;;1.60;;
34767;SDS011;21755;43.608;1.236;2023-12-20T08:09:49;2.30;;;1.80;;
34767;SDS011;21755;43.608;1.236;2023-12-20T08:12:16;2.60;;;1.58;;
34767;SDS011;21755;43.608;1.236;2023-12-20T08:14:42;2.80;;;1.80;;
34767;SDS011;21755;43.608;1.236;2023-12-20T08:17:08;2.03;;;1.60;;
34767;SDS011;21755;43.608;1.236;2023-12-20T08:19:34;2.45;;;1.80;;
34767;SDS011;21755;43.608;1.236;2023-12-20T08:22:00;2.90;;;1.60;;
34767;SDS011;21755;43.608;1.236;2023-12-20T08:24:26;5.15;;;2.00;;
34767;SDS011;21755;43.608;1.236;2023-12-20T08:26:52;2.88;;;1.75;;
34767;SDS011;21755;43.608;1.236;2023-12-20T08:29:18;2.17;;;1.90;;
34767;SDS011;21755;43.608;1.236;2023-12-20T08:31:44;1.60;;;1.50;;
34767;SDS011;21755;43.608;1.236;2023-12-20T08:34:11;2.88;;;1.83;;
34767;SDS011;21755;43.608;1.236;2023-12-20T08:36:39;5.20;;;1.63;;
34767;SDS011;21755;43.608;1.236;2023-12-20T08:39:05;6.13;;;1.60;;
34767;SDS011;21755;43.608;1.236;2023-12-20T08:41:32;4.20;;;1.90;;
34767;SDS011;21755;43.608;1.236;2023-12-20T08:43:58;5.25;;;2.08;;
34767;SDS011;21755;43.608;1.236;2023-12-20T08:46:24;4.13;;;2.10;;
34767;SDS011;21755;43.608;1.236;2023-12-20T08:48:50;3.03;;;2.00;;
34767;SDS011;21755;43.608;1.236;2023-12-20T08:51:16;5.70;;;1.77;;
34767;SDS011;21755;43.608;1.236;2023-12-20T08:53:42;2.65;;;1.80;;
34767;SDS011;21755;43.608;1.236;2023-12-20T08:56:10;2.40;;;1.85;;
34767;SDS011;21755;43.608;1.236;2023-12-20T08:58:36;2.80;;;2.03;;
34767;SDS011;21755;43.608;1.236;2023-12-20T09:01:02;4.93;;;2.20;;
34767;SDS011;21755;43.608;1.236;2023-12-20T09:03:28;3.55;;;1.65;;
34767;SDS011;21755;43.608;1.236;2023-12-20T09:05:53;2.47;;;1.92;;
34767;SDS011;21755;43.608;1.236;2023-12-20T09:08:19;1.88;;;1.55;;
34767;SDS011;21755;43.608;1.236;2023-12-20T09:10:45;3.33;;;1.67;;
34767;SDS011;21755;43.608;1.236;2023-12-20T09:13:11;3.22;;;1.80;;
34767;SDS011;21755;43.608;1.236;2023-12-20T09:15:37;2.65;;;1.42;;
34767;SDS011;21755;43.608;1.236;2023-12-20T09:18:03;2.10;;;1.17;;
34767;SDS011;21755;43.608;1.236;2023-12-20T09:20:29;5.38;;;1.45;;
34767;SDS011;21755;43.608;1.236;2023-12-20T09:22:55;3.72;;;1.40;;
34767;SDS011;21755;43.608;1.236;2023-12-20T09:25:21;2.42;;;1.48;;
34767;SDS011;21755;43.608;1.236;2023-12-20T09:27:48;2.80;;;1.17;;
34767;SDS011;21755;43.608;1.236;2023-12-20T09:30:14;7.95;;;1.40;;
34767;SDS011;21755;43.608;1.236;2023-12-20T09:32:40;3.00;;;1.20;;
34767;SDS011;21755;43.608;1.236;2023-12-20T09:35:06;5.22;;;1.58;;
34767;SDS011;21755;43.608;1.236;2023-12-20T09:37:33;2.75;;;1.23;;
34767;SDS011;21755;43.608;1.236;2023-12-20T09:40:00;3.78;;;1.70;;
34767;SDS011;21755;43.608;1.236;2023-12-20T09:42:39;5.35;;;1.80;;
34767;SDS011;21755;43.608;1.236;2023-12-20T09:45:22;8.68;;;2.47;;
34767;SDS011;21755;43.608;1.236;2023-12-20T09:47:49;3.80;;;2.30;;
34767;SDS011;21755;43.608;1.236;2023-12-20T09:50:21;6.10;;;2.67;;
34767;SDS011;21755;43.608;1.236;2023-12-20T09:52:51;5.38;;;2.05;;
34767;SDS011;21755;43.608;1.236;2023-12-20T09:55:18;3.13;;;2.10;;
34767;SDS011;21755;43.608;1.236;2023-12-20T09:57:47;3.45;;;1.80;;
34767;SDS011;21755;43.608;1.236;2023-12-20T10:00:14;8.20;;;2.92;;
34767;SDS011;21755;43.608;1.236;2023-12-20T10:02:45;5.72;;;2.97;;
34767;SDS011;21755;43.608;1.236;2023-12-20T10:05:16;4.43;;;3.08;;
34767;SDS011;21755;43.608;1.236;2023-12-20T10:07:46;3.20;;;2.58;;
34767;SDS011;21755;43.608;1.236;2023-12-20T10:10:13;2.80;;;2.03;;
34767;SDS011;21755;43.608;1.236;2023-12-20T10:12:39;6.57;;;1.88;;
34767;SDS011;21755;43.608;1.236;2023-12-20T10:15:05;4.53;;;2.00;;
34767;SDS011;21755;43.608;1.236;2023-12-20T10:17:31;10.73;;;2.65;;
34767;SDS011;21755;43.608;1.236;2023-12-20T10:19:58;9.82;;;2.38;;
34767;SDS011;21755;43.608;1.236;2023-12-20T10:22:24;3.75;;;2.22;;
34767;SDS011;21755;43.608;1.236;2023-12-20T10:24:50;5.72;;;2.08;;
34767;SDS011;21755;43.608;1.236;2023-12-20T10:27:16;7.93;;;3.35;;
34767;SDS011;21755;43.608;1.236;2023-12-20T10:29:44;7.72;;;3.83;;
34767;SDS011;21755;43.608;1.236;2023-12-20T10:32:26;6.57;;;2.75;;
34767;SDS011;21755;43.608;1.236;2023-12-20T10:34:53;4.97;;;2.45;;
34767;SDS011;21755;43.608;1.236;2023-12-20T10:37:20;2.28;;;1.50;;
34767;SDS011;21755;43.608;1.236;2023-12-20T10:39:50;3.53;;;1.50;;
34767;SDS011;21755;43.608;1.236;2023-12-20T10:42:18;5.47;;;2.10;;
34767;SDS011;21755;43.608;1.236;2023-12-20T10:44:47;7.60;;;1.80;;
34767;SDS011;21755;43.608;1.236;2023-12-20T10:47:16;6.55;;;1.95;;
34767;SDS011;21755;43.608;1.236;2023-12-20T10:49:43;3.22;;;1.42;;
34767;SDS011;21755;43.608;1.236;2023-12-20T10:52:10;2.75;;;1.25;;
34767;SDS011;21755;43.608;1.236;2023-12-20T10:54:38;6.82;;;1.70;;
34767;SDS011;21755;43.608;1.236;2023-12-20T10:57:07;6.20;;;1.30;;
34767;SDS011;21755;43.608;1.236;2023-12-20T10:59:33;5.57;;;2.08;;
34767;SDS011;21755;43.608;1.236;2023-12-20T11:02:03;2.75;;;1.27;;
34767;SDS011;21755;43.608;1.236;2023-12-20T11:04:38;7.47;;;2.10;;
34767;SDS011;21755;43.608;1.236;2023-12-20T11:07:29;2.97;;;1.27;;
34767;SDS011;21755;43.608;1.236;2023-12-20T11:10:13;4.60;;;1.30;;
34767;SDS011;21755;43.608;1.236;2023-12-20T11:15:14;4.60;;;1.35;;
34767;SDS011;21755;43.608;1.236;2023-12-20T11:17:42;7.93;;;1.80;;
34767;SDS011;21755;43.608;1.236;2023-12-20T11:20:13;10.80;;;1.33;;
34767;SDS011;21755;43.608;1.236;2023-12-20T11:22:39;7.28;;;1.48;;
34767;SDS011;21755;43.608;1.236;2023-12-20T11:25:20;4.82;;;1.30;;
34767;SDS011;21755;43.608;1.236;2023-12-20T11:30:46;6.22;;;1.70;;
34767;SDS011;21755;43.608;1.236;2023-12-20T11:33:15;6.43;;;2.33;;
34767;SDS011;21755;43.608;1.236;2023-12-20T11:35:42;5.47;;;1.20;;
34767;SDS011;21755;43.608;1.236;2023-12-20T11:38:10;12.98;;;1.70;;
34767;SDS011;21755;43.608;1.236;2023-12-20T11:40:36;4.82;;;1.60;;
34767;SDS011;21755;43.608;1.236;2023-12-20T11:43:03;9.38;;;1.75;;
34767;SDS011;21755;43.608;1.236;2023-12-20T11:45:30;3.05;;;1.20;;
34767;SDS011;21755;43.608;1.236;2023-12-20T11:47:57;4.53;;;1.30;;
34767;SDS011;21755;43.608;1.236;2023-12-20T11:50:23;7.85;;;1.23;;
34767;SDS011;21755;43.608;1.236;2023-12-20T11:52:51;9.15;;;1.45;;
34767;SDS011;21755;43.608;1.236;2023-12-20T11:55:18;7.40;;;2.20;;
34767;SDS011;21755;43.608;1.236;2023-12-20T11:57:44;5.65;;;1.58;;
34767;SDS011;21755;43.608;1.236;2023-12-20T12:00:10;6.75;;;1.30;;
34767;SDS011;21755;43.608;1.236;2023-12-20T12:02:36;2.30;;;0.95;;
34767;SDS011;21755;43.608;1.236;2023-12-20T12:05:02;4.97;;;1.50;;
34767;SDS011;21755;43.608;1.236;2023-12-20T12:07:31;5.30;;;1.40;;
34767;SDS011;21755;43.608;1.236;2023-12-20T12:09:58;5.60;;;2.03;;
34767;SDS011;21755;43.608;1.236;2023-12-20T12:12:24;4.80;;;1.60;;
34767;SDS011;21755;43.608;1.236;2023-12-20T12:14:52;4.45;;;1.90;;
34767;SDS011;21755;43.608;1.236;2023-12-20T12:17:18;7.07;;;1.77;;
34767;SDS011;21755;43.608;1.236;2023-12-20T12:19:44;13.38;;;2.80;;
34767;SDS011;21755;43.608;1.236;2023-12-20T12:22:12;8.30;;;2.85;;
34767;SDS011;21755;43.608;1.236;2023-12-20T12:24:42;9.85;;;2.58;;
34767;SDS011;21755;43.608;1.236;2023-12-20T12:27:09;8.05;;;2.15;;
34767;SDS011;21755;43.608;1.236;2023-12-20T12:29:36;6.38;;;2.38;;
34767;SDS011;21755;43.608;1.236;2023-12-20T12:32:09;5.25;;;2.22;;
34767;SDS011;21755;43.608;1.236;2023-12-20T12:34:35;11.15;;;2.15;;
34767;SDS011;21755;43.608;1.236;2023-12-20T12:37:02;16.90;;;1.98;;
34767;SDS011;21755;43.608;1.236;2023-12-20T12:39:32;4.88;;;1.75;;
34767;SDS011;21755;43.608;1.236;2023-12-20T12:41:58;8.13;;;2.88;;
34767;SDS011;21755;43.608;1.236;2023-12-20T12:44:24;6.25;;;1.30;;
34767;SDS011;21755;43.608;1.236;2023-12-20T12:46:50;7.97;;;1.38;;
34767;SDS011;21755;43.608;1.236;2023-12-20T12:49:16;5.35;;;1.00;;
34767;SDS011;21755;43.608;1.236;2023-12-20T12:51:43;5.07;;;1.00;;
34767;SDS011;21755;43.608;1.236;2023-12-20T12:54:09;5.90;;;1.02;;
34767;SDS011;21755;43.608;1.236;2023-12-20T12:56:35;7.20;;;2.75;;
34767;SDS011;21755;43.608;1.236;2023-12-20T12:59:01;5.97;;;1.15;;
34767;SDS011;21755;43.608;1.236;2023-12-20T13:01:27;4.07;;;1.13;;
34767;SDS011;21755;43.608;1.236;2023-12-20T13:03:53;5.13;;;1.23;;
34767;SDS011;21755;43.608;1.236;2023-12-20T13:06:19;4.68;;;0.82;;
34767;SDS011;21755;43.608;1.236;2023-12-20T13:08:45;3.38;;;1.15;;
34767;SDS011;21755;43.608;1.236;2023-12-20T13:11:11;5.00;;;1.70;;
34767;SDS011;21755;43.608;1.236;2023-12-20T13:13:37;4.63;;;1.15;;
34767;SDS011;21755;43.608;1.236;2023-12-20T13:16:03;4.50;;;1.00;;
34767;SDS011;21755;43.608;1.236;2023-12-20T13:18:29;6.15;;;1.20;;
34767;SDS011;21755;43.608;1.236;2023-12-20T13:20:55;4.88;;;1.10;;
34767;SDS011;21755;43.608;1.236;2023-12-20T13:23:21;8.55;;;1.10;;
34767;SDS011;21755;43.608;1.236;2023-12-20T13:25:47;7.90;;;1.48;;
34767;SDS011;21755;43.608;1.236;2023-12-20T13:28:13;4.90;;;1.10;;
34767;SDS011;21755;43.608;1.236;2023-12-20T13:30:39;4.60;;;1.30;;
34767;SDS011;21755;43.608;1.236;2023-12-20T13:33:06;8.38;;;1.48;;
34767;SDS011;21755;43.608;1.236;2023-12-20T13:35:32;5.43;;;1.23;;
34767;SDS011;21755;43.608;1.236;2023-12-20T13:37:59;7.88;;;1.30;;
34767;SDS011;21755;43.608;1.236;2023-12-20T13:40:25;3.75;;;0.80;;
34767;SDS011;21755;43.608;1.236;2023-12-20T13:42:51;8.27;;;1.35;;
34767;SDS011;21755;43.608;1.236;2023-12-20T13:45:19;7.78;;;1.30;;
34767;SDS011;21755;43.608;1.236;2023-12-20T13:47:45;11.23;;;2.15;;
34767;SDS011;21755;43.608;1.236;2023-12-20T13:50:11;11.18;;;3.00;;
34767;SDS011;21755;43.608;1.236;2023-12-20T13:52:37;5.35;;;1.90;;
34767;SDS011;21755;43.608;1.236;2023-12-20T13:55:04;10.13;;;1.50;;
34767;SDS011;21755;43.608;1.236;2023-12-20T13:57:32;5.70;;;1.60;;
34767;SDS011;21755;43.608;1.236;2023-12-20T13:59:59;7.00;;;1.23;;
34767;SDS011;21755;43.608;1.236;2023-12-20T14:02:25;4.57;;;1.27;;
34767;SDS011;21755;43.608;1.236;2023-12-20T14:04:52;9.35;;;1.80;;
34767;SDS011;21755;43.608;1.236;2023-12-20T14:07:18;5.78;;;1.45;;
34767;SDS011;21755;43.608;1.236;2023-12-20T14:09:43;8.93;;;1.20;;
34767;SDS011;21755;43.608;1.236;2023-12-20T14:12:11;4.72;;;1.30;;
34767;SDS011;21755;43.608;1.236;2023-12-20T14:14:37;7.85;;;1.50;;
34767;SDS011;21755;43.608;1.236;2023-12-20T14:17:03;7.47;;;1.75;;
34767;SDS011;21755;43.608;1.236;2023-12-20T14:19:31;7.10;;;2.45;;
34767;SDS011;21755;43.608;1.236;2023-12-20T14:21:57;8.32;;;2.95;;
34767;SDS011;21755;43.608;1.236;2023-12-20T14:24:27;5.40;;;1.33;;
34767;SDS011;21755;43.608;1.236;2023-12-20T14:26:56;6.75;;;1.50;;
34767;SDS011;21755;43.608;1.236;2023-12-20T14:29:23;4.50;;;1.63;;
34767;SDS011;21755;43.608;1.236;2023-12-20T14:31:49;13.60;;;2.00;;
34767;SDS011;21755;43.608;1.236;2023-12-20T14:34:15;9.98;;;1.95;;
34767;SDS011;21755;43.608;1.236;2023-12-20T14:36:41;12.07;;;1.50;;
34767;SDS011;21755;43.608;1.236;2023-12-20T14:39:07;6.75;;;1.85;;
34767;SDS011;21755;43.608;1.236;2023-12-20T14:41:33;12.85;;;4.03;;
34767;SDS011;21755;43.608;1.236;2023-12-20T14:43:59;13.65;;;3.58;;
34767;SDS011;21755;43.608;1.236;2023-12-20T14:46:25;9.50;;;2.75;;
34767;SDS011;21755;43.608;1.236;2023-12-20T14:48:51;6.85;;;1.58;;